Terminal Aerodrome Forecast
Issued by NWS Albany, NY

Home | Current Version | Previous Version | Text Only | Print | Product List | Glossary On
Versions: 1 2 3 4 5 6 7 8 9 10 11 12 13 14 15 16 17 18 19 20
000
FTUS41 KALY 241904 AAA
TAFALB
TAF AMD
KALB 241904Z 2419/2518 27013KT P6SM BKN250
     FM250100 20005KT P6SM BKN250
     FM250900 17004KT P6SM SCT090 BKN150 BKN200
     FM251500 17009KT P6SM BKN090 BKN120=

USA.gov is the U.S. government's official web portal to all federal, state and local government web resources and services.